sensor_id;sensor_type;location;lat;lon;timestamp;P1;durP1;ratioP1;P2;durP2;ratioP2
966;SDS011;56108;48.730;9.304;2023-08-21T00:01:12;8.97;;;7.40;;
966;SDS011;56108;48.730;9.304;2023-08-21T00:07:19;7.83;;;7.07;;
966;SDS011;56108;48.730;9.304;2023-08-21T00:27:03;8.30;;;7.20;;
966;SDS011;56108;48.730;9.304;2023-08-21T00:30:26;9.53;;;7.23;;
966;SDS011;56108;48.730;9.304;2023-08-21T00:33:41;7.60;;;6.90;;
966;SDS011;56108;48.730;9.304;2023-08-21T00:36:29;8.83;;;7.87;;
966;SDS011;56108;48.730;9.304;2023-08-21T00:40:09;8.13;;;7.32;;
966;SDS011;56108;48.730;9.304;2023-08-21T01:04:33;8.73;;;7.90;;
966;SDS011;56108;48.730;9.304;2023-08-21T01:07:47;11.10;;;7.90;;
966;SDS011;56108;48.730;9.304;2023-08-21T01:17:47;9.38;;;8.45;;
966;SDS011;56108;48.730;9.304;2023-08-21T01:20:45;11.75;;;10.02;;
966;SDS011;56108;48.730;9.304;2023-08-21T01:24:00;10.73;;;9.63;;
966;SDS011;56108;48.730;9.304;2023-08-21T01:26:23;11.57;;;10.10;;
966;SDS011;56108;48.730;9.304;2023-08-21T01:28:38;12.68;;;9.95;;
966;SDS011;56108;48.730;9.304;2023-08-21T01:30:50;13.38;;;9.82;;
966;SDS011;56108;48.730;9.304;2023-08-21T01:33:10;14.30;;;10.65;;
966;SDS011;56108;48.730;9.304;2023-08-21T01:41:13;10.48;;;9.38;;
966;SDS011;56108;48.730;9.304;2023-08-21T01:43:41;11.00;;;9.90;;
966;SDS011;56108;48.730;9.304;2023-08-21T01:46:03;11.65;;;9.77;;
966;SDS011;56108;48.730;9.304;2023-08-21T01:48:33;11.82;;;9.20;;
966;SDS011;56108;48.730;9.304;2023-08-21T01:51:16;10.60;;;9.25;;
966;SDS011;56108;48.730;9.304;2023-08-21T01:53:42;11.25;;;10.10;;
966;SDS011;56108;48.730;9.304;2023-08-21T01:56:57;12.13;;;10.13;;
966;SDS011;56108;48.730;9.304;2023-08-21T01:59:31;13.07;;;10.57;;
966;SDS011;56108;48.730;9.304;2023-08-21T02:02:19;11.63;;;9.40;;
966;SDS011;56108;48.730;9.304;2023-08-21T02:04:36;14.63;;;9.27;;
966;SDS011;56108;48.730;9.304;2023-08-21T02:06:51;12.43;;;9.57;;
966;SDS011;56108;48.730;9.304;2023-08-21T02:09:02;11.55;;;10.18;;
966;SDS011;56108;48.730;9.304;2023-08-21T02:11:13;13.70;;;10.05;;
966;SDS011;56108;48.730;9.304;2023-08-21T02:13:34;9.95;;;8.98;;
966;SDS011;56108;48.730;9.304;2023-08-21T02:15:52;11.25;;;9.48;;
966;SDS011;56108;48.730;9.304;2023-08-21T02:18:07;10.23;;;8.95;;
966;SDS011;56108;48.730;9.304;2023-08-21T02:20:44;10.02;;;8.57;;
966;SDS011;56108;48.730;9.304;2023-08-21T02:26:47;12.60;;;9.88;;
966;SDS011;56108;48.730;9.304;2023-08-21T02:32:44;11.38;;;10.18;;
966;SDS011;56108;48.730;9.304;2023-08-21T02:35:29;13.13;;;9.20;;
966;SDS011;56108;48.730;9.304;2023-08-21T02:38:14;9.05;;;8.15;;
966;SDS011;56108;48.730;9.304;2023-08-21T02:41:15;10.20;;;9.13;;
966;SDS011;56108;48.730;9.304;2023-08-21T02:44:49;12.77;;;9.55;;
966;SDS011;56108;48.730;9.304;2023-08-21T02:48:03;13.65;;;10.00;;
966;SDS011;56108;48.730;9.304;2023-08-21T02:50:44;10.60;;;9.50;;
966;SDS011;56108;48.730;9.304;2023-08-21T02:53:11;10.80;;;9.70;;
966;SDS011;56108;48.730;9.304;2023-08-21T02:55:53;10.43;;;9.35;;
966;SDS011;56108;48.730;9.304;2023-08-21T02:59:04;10.82;;;9.73;;
966;SDS011;56108;48.730;9.304;2023-08-21T03:07:30;10.20;;;9.20;;
966;SDS011;56108;48.730;9.304;2023-08-21T03:14:12;12.07;;;9.52;;
966;SDS011;56108;48.730;9.304;2023-08-21T03:17:34;9.75;;;8.75;;
966;SDS011;56108;48.730;9.304;2023-08-21T03:20:17;12.60;;;9.75;;
966;SDS011;56108;48.730;9.304;2023-08-21T03:26:05;10.35;;;9.07;;
966;SDS011;56108;48.730;9.304;2023-08-21T03:29:24;10.70;;;9.35;;
966;SDS011;56108;48.730;9.304;2023-08-21T03:32:21;11.65;;;9.68;;
966;SDS011;56108;48.730;9.304;2023-08-21T03:35:03;18.10;;;11.35;;
966;SDS011;56108;48.730;9.304;2023-08-21T03:40:37;12.90;;;10.63;;
966;SDS011;56108;48.730;9.304;2023-08-21T03:43:09;13.00;;;11.70;;
966;SDS011;56108;48.730;9.304;2023-08-21T03:46:14;11.50;;;10.30;;
966;SDS011;56108;48.730;9.304;2023-08-21T03:48:31;15.38;;;11.40;;
966;SDS011;56108;48.730;9.304;2023-08-21T03:51:27;14.25;;;11.05;;
966;SDS011;56108;48.730;9.304;2023-08-21T03:54:43;11.38;;;10.18;;
966;SDS011;56108;48.730;9.304;2023-08-21T04:00:54;14.25;;;11.25;;
966;SDS011;56108;48.730;9.304;2023-08-21T04:03:47;13.98;;;11.63;;
966;SDS011;56108;48.730;9.304;2023-08-21T04:10:05;13.68;;;10.98;;
966;SDS011;56108;48.730;9.304;2023-08-21T04:12:51;15.27;;;11.23;;
966;SDS011;56108;48.730;9.304;2023-08-21T04:19:05;12.38;;;10.52;;
966;SDS011;56108;48.730;9.304;2023-08-21T04:22:16;12.93;;;9.57;;
966;SDS011;56108;48.730;9.304;2023-08-21T04:24:48;11.93;;;10.07;;
966;SDS011;56108;48.730;9.304;2023-08-21T04:27:15;12.98;;;10.43;;
966;SDS011;56108;48.730;9.304;2023-08-21T04:29:29;12.45;;;10.70;;
966;SDS011;56108;48.730;9.304;2023-08-21T04:32:17;12.55;;;10.38;;
966;SDS011;56108;48.730;9.304;2023-08-21T04:34:52;10.07;;;9.18;;
966;SDS011;56108;48.730;9.304;2023-08-21T04:37:04;11.73;;;9.82;;
966;SDS011;56108;48.730;9.304;2023-08-21T04:39:44;13.60;;;11.52;;
966;SDS011;56108;48.730;9.304;2023-08-21T04:41:56;12.43;;;11.05;;
966;SDS011;56108;48.730;9.304;2023-08-21T04:44:07;13.95;;;10.20;;
966;SDS011;56108;48.730;9.304;2023-08-21T04:46:13;14.90;;;11.90;;
966;SDS011;56108;48.730;9.304;2023-08-21T04:48:28;12.05;;;9.93;;
966;SDS011;56108;48.730;9.304;2023-08-21T04:50:38;11.18;;;9.95;;
966;SDS011;56108;48.730;9.304;2023-08-21T04:52:47;11.32;;;10.13;;
966;SDS011;56108;48.730;9.304;2023-08-21T04:54:56;10.98;;;9.63;;
966;SDS011;56108;48.730;9.304;2023-08-21T04:57:07;12.52;;;10.18;;
966;SDS011;56108;48.730;9.304;2023-08-21T04:59:15;13.65;;;11.93;;
966;SDS011;56108;48.730;9.304;2023-08-21T05:01:23;12.38;;;11.15;;
966;SDS011;56108;48.730;9.304;2023-08-21T05:03:36;13.23;;;11.23;;
966;SDS011;56108;48.730;9.304;2023-08-21T05:05:51;12.07;;;10.77;;
966;SDS011;56108;48.730;9.304;2023-08-21T05:08:01;13.37;;;11.70;;
966;SDS011;56108;48.730;9.304;2023-08-21T05:10:10;12.17;;;10.87;;
966;SDS011;56108;48.730;9.304;2023-08-21T05:12:20;12.07;;;10.87;;
966;SDS011;56108;48.730;9.304;2023-08-21T05:14:31;11.67;;;10.57;;
966;SDS011;56108;48.730;9.304;2023-08-21T05:16:39;10.63;;;9.57;;
966;SDS011;56108;48.730;9.304;2023-08-21T05:18:52;12.57;;;9.33;;
966;SDS011;56108;48.730;9.304;2023-08-21T05:21:00;10.10;;;9.10;;
966;SDS011;56108;48.730;9.304;2023-08-21T05:23:09;9.60;;;8.70;;
966;SDS011;56108;48.730;9.304;2023-08-21T05:25:18;9.10;;;8.23;;
966;SDS011;56108;48.730;9.304;2023-08-21T05:27:26;13.23;;;8.73;;
966;SDS011;56108;48.730;9.304;2023-08-21T05:29:34;9.87;;;8.87;;
966;SDS011;56108;48.730;9.304;2023-08-21T05:31:43;9.83;;;8.93;;
966;SDS011;56108;48.730;9.304;2023-08-21T05:33:56;10.50;;;9.43;;
966;SDS011;56108;48.730;9.304;2023-08-21T05:36:04;9.23;;;8.50;;
966;SDS011;56108;48.730;9.304;2023-08-21T05:38:13;8.60;;;7.83;;
966;SDS011;56108;48.730;9.304;2023-08-21T05:40:22;9.80;;;8.20;;
966;SDS011;56108;48.730;9.304;2023-08-21T05:42:30;10.20;;;8.60;;
966;SDS011;56108;48.730;9.304;2023-08-21T05:44:38;9.77;;;8.87;;
966;SDS011;56108;48.730;9.304;2023-08-21T05:46:48;8.30;;;7.60;;
966;SDS011;56108;48.730;9.304;2023-08-21T05:48:59;6.90;;;6.40;;
966;SDS011;56108;48.730;9.304;2023-08-21T05:51:07;8.47;;;7.77;;
966;SDS011;56108;48.730;9.304;2023-08-21T05:53:18;9.33;;;8.43;;
966;SDS011;56108;48.730;9.304;2023-08-21T05:55:26;9.10;;;8.20;;
966;SDS011;56108;48.730;9.304;2023-08-21T05:57:35;8.97;;;8.17;;
966;SDS011;56108;48.730;9.304;2023-08-21T05:59:43;9.60;;;8.67;;
966;SDS011;56108;48.730;9.304;2023-08-21T06:01:52;8.83;;;8.00;;
966;SDS011;56108;48.730;9.304;2023-08-21T06:04:06;9.93;;;7.83;;
966;SDS011;56108;48.730;9.304;2023-08-21T06:06:29;8.47;;;7.77;;
966;SDS011;56108;48.730;9.304;2023-08-21T06:08:38;7.63;;;7.10;;
966;SDS011;56108;48.730;9.304;2023-08-21T06:10:50;9.63;;;8.73;;
966;SDS011;56108;48.730;9.304;2023-08-21T06:13:00;11.27;;;8.10;;
966;SDS011;56108;48.730;9.304;2023-08-21T06:15:10;8.20;;;7.50;;
966;SDS011;56108;48.730;9.304;2023-08-21T06:17:19;7.93;;;7.27;;
966;SDS011;56108;48.730;9.304;2023-08-21T06:19:33;9.60;;;8.57;;
966;SDS011;56108;48.730;9.304;2023-08-21T06:21:43;7.20;;;6.60;;
966;SDS011;56108;48.730;9.304;2023-08-21T06:23:53;7.60;;;6.87;;
966;SDS011;56108;48.730;9.304;2023-08-21T06:26:03;8.40;;;7.70;;
966;SDS011;56108;48.730;9.304;2023-08-21T06:28:11;8.83;;;8.03;;
966;SDS011;56108;48.730;9.304;2023-08-21T06:30:19;8.00;;;7.37;;
966;SDS011;56108;48.730;9.304;2023-08-21T06:32:28;8.13;;;7.47;;
966;SDS011;56108;48.730;9.304;2023-08-21T06:34:38;9.27;;;8.47;;
966;SDS011;56108;48.730;9.304;2023-08-21T06:36:47;9.13;;;8.33;;
966;SDS011;56108;48.730;9.304;2023-08-21T06:38:55;12.47;;;8.80;;
966;SDS011;56108;48.730;9.304;2023-08-21T06:41:04;8.80;;;7.90;;
966;SDS011;56108;48.730;9.304;2023-08-21T06:43:16;7.80;;;7.10;;
966;SDS011;56108;48.730;9.304;2023-08-21T06:45:27;8.43;;;7.63;;
966;SDS011;56108;48.730;9.304;2023-08-21T06:47:39;9.73;;;7.80;;
966;SDS011;56108;48.730;9.304;2023-08-21T06:49:50;8.60;;;7.80;;
966;SDS011;56108;48.730;9.304;2023-08-21T06:51:58;8.70;;;8.00;;
966;SDS011;56108;48.730;9.304;2023-08-21T06:54:08;8.23;;;7.53;;
966;SDS011;56108;48.730;9.304;2023-08-21T06:56:16;7.80;;;7.20;;
966;SDS011;56108;48.730;9.304;2023-08-21T06:58:26;9.10;;;6.97;;
966;SDS011;56108;48.730;9.304;2023-08-21T07:00:39;8.10;;;7.33;;
966;SDS011;56108;48.730;9.304;2023-08-21T07:02:48;7.53;;;6.80;;
966;SDS011;56108;48.730;9.304;2023-08-21T07:04:59;6.50;;;6.00;;
966;SDS011;56108;48.730;9.304;2023-08-21T07:07:20;6.90;;;6.30;;
966;SDS011;56108;48.730;9.304;2023-08-21T07:09:29;8.53;;;7.80;;
966;SDS011;56108;48.730;9.304;2023-08-21T07:11:37;7.23;;;6.63;;
966;SDS011;56108;48.730;9.304;2023-08-21T07:13:46;10.97;;;7.43;;
966;SDS011;56108;48.730;9.304;2023-08-21T07:15:54;7.07;;;6.57;;
966;SDS011;56108;48.730;9.304;2023-08-21T07:18:04;7.80;;;7.03;;
966;SDS011;56108;48.730;9.304;2023-08-21T07:20:16;7.50;;;6.90;;
966;SDS011;56108;48.730;9.304;2023-08-21T07:22:24;7.80;;;7.20;;
966;SDS011;56108;48.730;9.304;2023-08-21T07:24:32;7.37;;;6.77;;
966;SDS011;56108;48.730;9.304;2023-08-21T07:26:43;8.03;;;7.23;;
966;SDS011;56108;48.730;9.304;2023-08-21T07:28:54;7.30;;;6.60;;
966;SDS011;56108;48.730;9.304;2023-08-21T07:31:04;6.90;;;6.30;;
966;SDS011;56108;48.730;9.304;2023-08-21T07:33:13;7.07;;;6.53;;
966;SDS011;56108;48.730;9.304;2023-08-21T07:35:27;7.20;;;6.60;;
966;SDS011;56108;48.730;9.304;2023-08-21T07:37:35;7.20;;;6.60;;
966;SDS011;56108;48.730;9.304;2023-08-21T07:39:45;7.50;;;6.80;;
966;SDS011;56108;48.730;9.304;2023-08-21T07:41:54;7.60;;;6.60;;
966;SDS011;56108;48.730;9.304;2023-08-21T07:44:05;7.83;;;7.23;;
966;SDS011;56108;48.730;9.304;2023-08-21T07:46:16;8.33;;;7.50;;
966;SDS011;56108;48.730;9.304;2023-08-21T07:48:28;7.83;;;7.13;;
966;SDS011;56108;48.730;9.304;2023-08-21T07:51:04;7.40;;;6.80;;
966;SDS011;56108;48.730;9.304;2023-08-21T07:53:21;8.27;;;7.00;;
966;SDS011;56108;48.730;9.304;2023-08-21T07:55:50;8.10;;;7.30;;
966;SDS011;56108;48.730;9.304;2023-08-21T07:58:07;7.37;;;6.77;;
966;SDS011;56108;48.730;9.304;2023-08-21T08:00:18;7.63;;;6.93;;
966;SDS011;56108;48.730;9.304;2023-08-21T08:02:32;7.73;;;6.90;;
966;SDS011;56108;48.730;9.304;2023-08-21T08:04:40;8.43;;;7.37;;
966;SDS011;56108;48.730;9.304;2023-08-21T08:07:00;8.63;;;7.83;;
966;SDS011;56108;48.730;9.304;2023-08-21T08:09:20;8.30;;;7.53;;
966;SDS011;56108;48.730;9.304;2023-08-21T08:11:29;9.10;;;8.20;;
966;SDS011;56108;48.730;9.304;2023-08-21T08:13:44;8.93;;;8.13;;
966;SDS011;56108;48.730;9.304;2023-08-21T08:15:52;8.00;;;7.20;;
966;SDS011;56108;48.730;9.304;2023-08-21T08:18:00;8.33;;;7.57;;
966;SDS011;56108;48.730;9.304;2023-08-21T08:20:12;9.40;;;8.50;;
966;SDS011;56108;48.730;9.304;2023-08-21T08:22:24;8.77;;;7.87;;
966;SDS011;56108;48.730;9.304;2023-08-21T08:24:32;8.20;;;7.40;;
966;SDS011;56108;48.730;9.304;2023-08-21T08:29:02;8.50;;;7.70;;
966;SDS011;56108;48.730;9.304;2023-08-21T08:31:14;7.43;;;6.57;;
966;SDS011;56108;48.730;9.304;2023-08-21T08:33:30;8.50;;;6.63;;
966;SDS011;56108;48.730;9.304;2023-08-21T08:35:43;8.23;;;7.30;;
966;SDS011;56108;48.730;9.304;2023-08-21T08:37:57;9.43;;;8.63;;
966;SDS011;56108;48.730;9.304;2023-08-21T08:40:06;8.80;;;8.00;;
966;SDS011;56108;48.730;9.304;2023-08-21T08:42:15;7.50;;;6.70;;
966;SDS011;56108;48.730;9.304;2023-08-21T08:44:25;9.13;;;8.23;;
966;SDS011;56108;48.730;9.304;2023-08-21T08:46:36;8.70;;;7.80;;
966;SDS011;56108;48.730;9.304;2023-08-21T08:48:56;9.40;;;8.10;;
966;SDS011;56108;48.730;9.304;2023-08-21T08:51:05;8.87;;;7.97;;
966;SDS011;56108;48.730;9.304;2023-08-21T08:53:18;8.60;;;7.90;;
966;SDS011;56108;48.730;9.304;2023-08-21T08:55:27;8.43;;;7.63;;
966;SDS011;56108;48.730;9.304;2023-08-21T08:57:35;9.00;;;8.20;;
966;SDS011;56108;48.730;9.304;2023-08-21T08:59:44;8.70;;;7.90;;
966;SDS011;56108;48.730;9.304;2023-08-21T09:01:53;10.47;;;8.17;;
966;SDS011;56108;48.730;9.304;2023-08-21T09:04:02;8.90;;;8.10;;
966;SDS011;56108;48.730;9.304;2023-08-21T09:06:12;10.53;;;9.40;;
966;SDS011;56108;48.730;9.304;2023-08-21T09:08:23;8.73;;;7.93;;
966;SDS011;56108;48.730;9.304;2023-08-21T09:10:32;10.93;;;8.90;;
966;SDS011;56108;48.730;9.304;2023-08-21T09:12:41;10.70;;;8.80;;
966;SDS011;56108;48.730;9.304;2023-08-21T09:14:53;12.83;;;9.53;;
966;SDS011;56108;48.730;9.304;2023-08-21T09:17:01;10.63;;;8.80;;
966;SDS011;56108;48.730;9.304;2023-08-21T09:19:09;10.40;;;9.40;;
966;SDS011;56108;48.730;9.304;2023-08-21T09:21:17;11.13;;;9.53;;
966;SDS011;56108;48.730;9.304;2023-08-21T09:23:28;9.50;;;8.50;;
966;SDS011;56108;48.730;9.304;2023-08-21T09:25:37;9.67;;;8.67;;
966;SDS011;56108;48.730;9.304;2023-08-21T09:27:48;11.07;;;9.80;;
966;SDS011;56108;48.730;9.304;2023-08-21T09:30:01;14.10;;;8.37;;
966;SDS011;56108;48.730;9.304;2023-08-21T09:32:13;11.30;;;8.20;;
966;SDS011;56108;48.730;9.304;2023-08-21T09:34:22;9.37;;;8.40;;
966;SDS011;56108;48.730;9.304;2023-08-21T09:36:34;8.67;;;7.13;;
966;SDS011;56108;48.730;9.304;2023-08-21T09:38:45;8.03;;;7.33;;
966;SDS011;56108;48.730;9.304;2023-08-21T09:40:55;8.60;;;7.70;;
966;SDS011;56108;48.730;9.304;2023-08-21T09:43:03;9.20;;;7.97;;
966;SDS011;56108;48.730;9.304;2023-08-21T09:45:12;9.30;;;8.50;;
966;SDS011;56108;48.730;9.304;2023-08-21T09:47:20;8.50;;;7.77;;
966;SDS011;56108;48.730;9.304;2023-08-21T09:49:31;8.10;;;6.70;;
966;SDS011;56108;48.730;9.304;2023-08-21T09:51:45;7.80;;;7.20;;
966;SDS011;56108;48.730;9.304;2023-08-21T09:53:56;6.60;;;6.00;;
966;SDS011;56108;48.730;9.304;2023-08-21T09:56:08;7.70;;;7.00;;
966;SDS011;56108;48.730;9.304;2023-08-21T09:58:20;8.30;;;7.60;;
966;SDS011;56108;48.730;9.304;2023-08-21T10:00:29;8.63;;;7.83;;
966;SDS011;56108;48.730;9.304;2023-08-21T10:02:37;6.53;;;5.93;;
966;SDS011;56108;48.730;9.304;2023-08-21T10:04:46;6.80;;;6.20;;
966;SDS011;56108;48.730;9.304;2023-08-21T10:06:56;7.57;;;6.90;;
966;SDS011;56108;48.730;9.304;2023-08-21T10:09:08;5.93;;;5.50;;
966;SDS011;56108;48.730;9.304;2023-08-21T10:11:16;6.37;;;4.50;;
966;SDS011;56108;48.730;9.304;2023-08-21T10:13:27;6.70;;;4.20;;
966;SDS011;56108;48.730;9.304;2023-08-21T10:15:36;5.13;;;4.63;;
966;SDS011;56108;48.730;9.304;2023-08-21T10:17:45;5.80;;;4.40;;
966;SDS011;56108;48.730;9.304;2023-08-21T10:19:53;7.13;;;5.53;;
966;SDS011;56108;48.730;9.304;2023-08-21T10:22:02;5.40;;;5.00;;
966;SDS011;56108;48.730;9.304;2023-08-21T10:24:14;5.17;;;4.77;;
966;SDS011;56108;48.730;9.304;2023-08-21T10:26:37;6.53;;;4.90;;
966;SDS011;56108;48.730;9.304;2023-08-21T10:28:52;5.27;;;4.77;;
966;SDS011;56108;48.730;9.304;2023-08-21T10:31:05;6.00;;;5.50;;
966;SDS011;56108;48.730;9.304;2023-08-21T10:33:45;5.07;;;4.67;;
966;SDS011;56108;48.730;9.304;2023-08-21T10:35:53;5.63;;;5.00;;
966;SDS011;56108;48.730;9.304;2023-08-21T10:38:12;5.87;;;5.40;;
966;SDS011;56108;48.730;9.304;2023-08-21T10:40:25;5.93;;;5.47;;
966;SDS011;56108;48.730;9.304;2023-08-21T10:42:41;5.90;;;5.50;;
966;SDS011;56108;48.730;9.304;2023-08-21T10:44:51;6.93;;;6.17;;
966;SDS011;56108;48.730;9.304;2023-08-21T10:47:12;5.63;;;5.23;;
966;SDS011;56108;48.730;9.304;2023-08-21T10:49:22;6.40;;;5.80;;
966;SDS011;56108;48.730;9.304;2023-08-21T10:51:30;9.77;;;6.40;;
966;SDS011;56108;48.730;9.304;2023-08-21T10:53:39;5.73;;;4.90;;
966;SDS011;56108;48.730;9.304;2023-08-21T10:55:55;5.77;;;5.27;;
966;SDS011;56108;48.730;9.304;2023-08-21T10:58:03;7.47;;;6.33;;
966;SDS011;56108;48.730;9.304;2023-08-21T11:00:16;5.77;;;5.27;;
966;SDS011;56108;48.730;9.304;2023-08-21T11:02:26;6.00;;;5.60;;
966;SDS011;56108;48.730;9.304;2023-08-21T11:04:39;5.50;;;5.00;;
966;SDS011;56108;48.730;9.304;2023-08-21T11:06:46;6.77;;;6.27;;
966;SDS011;56108;48.730;9.304;2023-08-21T11:08:59;6.20;;;5.70;;
966;SDS011;56108;48.730;9.304;2023-08-21T11:11:11;6.60;;;6.00;;
966;SDS011;56108;48.730;9.304;2023-08-21T11:13:19;5.93;;;5.43;;
966;SDS011;56108;48.730;9.304;2023-08-21T11:15:30;5.97;;;5.47;;
966;SDS011;56108;48.730;9.304;2023-08-21T11:17:38;7.13;;;6.30;;
966;SDS011;56108;48.730;9.304;2023-08-21T11:19:46;8.20;;;6.90;;
966;SDS011;56108;48.730;9.304;2023-08-21T11:21:56;7.60;;;6.73;;
966;SDS011;56108;48.730;9.304;2023-08-21T11:24:08;7.10;;;6.50;;
966;SDS011;56108;48.730;9.304;2023-08-21T11:26:19;6.23;;;5.70;;
966;SDS011;56108;48.730;9.304;2023-08-21T11:28:30;6.93;;;6.33;;
966;SDS011;56108;48.730;9.304;2023-08-21T11:30:38;7.00;;;6.30;;
966;SDS011;56108;48.730;9.304;2023-08-21T11:32:47;8.13;;;6.90;;
966;SDS011;56108;48.730;9.304;2023-08-21T11:34:56;7.63;;;6.40;;
966;SDS011;56108;48.730;9.304;2023-08-21T11:37:05;6.63;;;6.13;;
966;SDS011;56108;48.730;9.304;2023-08-21T11:39:10;6.77;;;6.10;;
966;SDS011;56108;48.730;9.304;2023-08-21T11:41:22;7.60;;;6.80;;
966;SDS011;56108;48.730;9.304;2023-08-21T11:43:33;6.60;;;6.07;;
966;SDS011;56108;48.730;9.304;2023-08-21T11:45:43;7.20;;;6.60;;
966;SDS011;56108;48.730;9.304;2023-08-21T11:48:02;10.30;;;6.83;;
966;SDS011;56108;48.730;9.304;2023-08-21T11:50:11;8.27;;;6.70;;
966;SDS011;56108;48.730;9.304;2023-08-21T11:52:24;7.93;;;7.13;;
966;SDS011;56108;48.730;9.304;2023-08-21T11:54:34;7.87;;;6.90;;
966;SDS011;56108;48.730;9.304;2023-08-21T11:56:46;7.37;;;6.60;;
966;SDS011;56108;48.730;9.304;2023-08-21T11:58:54;7.83;;;7.03;;
966;SDS011;56108;48.730;9.304;2023-08-21T12:01:04;7.30;;;6.60;;
966;SDS011;56108;48.730;9.304;2023-08-21T12:03:17;7.70;;;7.00;;
966;SDS011;56108;48.730;9.304;2023-08-21T12:05:26;7.10;;;6.43;;
966;SDS011;56108;48.730;9.304;2023-08-21T12:07:35;7.37;;;6.67;;
966;SDS011;56108;48.730;9.304;2023-08-21T12:09:46;7.50;;;6.80;;
966;SDS011;56108;48.730;9.304;2023-08-21T12:11:58;7.97;;;7.27;;
966;SDS011;56108;48.730;9.304;2023-08-21T12:14:06;7.57;;;6.90;;
966;SDS011;56108;48.730;9.304;2023-08-21T12:16:14;8.93;;;7.10;;
966;SDS011;56108;48.730;9.304;2023-08-21T12:18:22;8.37;;;6.73;;
966;SDS011;56108;48.730;9.304;2023-08-21T12:20:31;6.80;;;6.20;;
966;SDS011;56108;48.730;9.304;2023-08-21T12:22:40;6.83;;;6.33;;
966;SDS011;56108;48.730;9.304;2023-08-21T12:24:49;7.23;;;6.63;;
966;SDS011;56108;48.730;9.304;2023-08-21T12:27:00;8.10;;;6.50;;
966;SDS011;56108;48.730;9.304;2023-08-21T12:29:10;7.10;;;6.50;;
966;SDS011;56108;48.730;9.304;2023-08-21T12:31:18;8.03;;;6.73;;
966;SDS011;56108;48.730;9.304;2023-08-21T12:33:29;9.57;;;6.70;;
966;SDS011;56108;48.730;9.304;2023-08-21T12:35:38;7.40;;;6.80;;
966;SDS011;56108;48.730;9.304;2023-08-21T12:37:46;7.07;;;6.47;;
966;SDS011;56108;48.730;9.304;2023-08-21T12:39:56;7.13;;;6.53;;
966;SDS011;56108;48.730;9.304;2023-08-21T12:42:08;8.60;;;6.40;;
966;SDS011;56108;48.730;9.304;2023-08-21T12:44:16;10.50;;;7.27;;
966;SDS011;56108;48.730;9.304;2023-08-21T12:46:25;8.57;;;7.07;;
966;SDS011;56108;48.730;9.304;2023-08-21T12:48:35;7.10;;;6.40;;
966;SDS011;56108;48.730;9.304;2023-08-21T12:50:43;8.20;;;7.03;;
966;SDS011;56108;48.730;9.304;2023-08-21T12:52:52;8.00;;;7.20;;
966;SDS011;56108;48.730;9.304;2023-08-21T12:55:01;7.40;;;6.80;;
966;SDS011;56108;48.730;9.304;2023-08-21T12:57:13;7.40;;;6.20;;
966;SDS011;56108;48.730;9.304;2023-08-21T12:59:22;7.00;;;6.30;;
966;SDS011;56108;48.730;9.304;2023-08-21T13:01:31;7.33;;;6.73;;
966;SDS011;56108;48.730;9.304;2023-08-21T13:03:43;7.60;;;6.90;;
966;SDS011;56108;48.730;9.304;2023-08-21T13:05:54;7.10;;;6.50;;
966;SDS011;56108;48.730;9.304;2023-08-21T13:08:03;7.60;;;6.73;;
966;SDS011;56108;48.730;9.304;2023-08-21T13:10:12;7.83;;;7.13;;
966;SDS011;56108;48.730;9.304;2023-08-21T13:12:23;7.13;;;6.43;;
966;SDS011;56108;48.730;9.304;2023-08-21T13:14:32;7.67;;;6.30;;
966;SDS011;56108;48.730;9.304;2023-08-21T13:16:40;6.73;;;6.03;;
966;SDS011;56108;48.730;9.304;2023-08-21T13:18:49;7.83;;;6.33;;
966;SDS011;56108;48.730;9.304;2023-08-21T13:20:54;6.90;;;6.20;;
966;SDS011;56108;48.730;9.304;2023-08-21T13:23:05;6.90;;;6.30;;
966;SDS011;56108;48.730;9.304;2023-08-21T13:25:14;7.20;;;6.60;;
966;SDS011;56108;48.730;9.304;2023-08-21T13:27:26;6.67;;;5.97;;
966;SDS011;56108;48.730;9.304;2023-08-21T13:29:34;6.83;;;6.23;;
966;SDS011;56108;48.730;9.304;2023-08-21T13:31:42;7.07;;;6.47;;
966;SDS011;56108;48.730;9.304;2023-08-21T13:33:50;9.83;;;6.73;;
966;SDS011;56108;48.730;9.304;2023-08-21T13:35:59;7.30;;;6.60;;
966;SDS011;56108;48.730;9.304;2023-08-21T13:38:07;7.10;;;6.50;;
966;SDS011;56108;48.730;9.304;2023-08-21T13:40:15;6.50;;;5.90;;
966;SDS011;56108;48.730;9.304;2023-08-21T13:42:26;8.73;;;6.13;;
966;SDS011;56108;48.730;9.304;2023-08-21T13:44:36;15.07;;;6.33;;
966;SDS011;56108;48.730;9.304;2023-08-21T13:46:46;6.90;;;6.30;;
966;SDS011;56108;48.730;9.304;2023-08-21T13:48:55;7.07;;;6.37;;
966;SDS011;56108;48.730;9.304;2023-08-21T13:51:03;7.73;;;6.90;;
966;SDS011;56108;48.730;9.304;2023-08-21T13:53:11;7.57;;;6.10;;
966;SDS011;56108;48.730;9.304;2023-08-21T13:55:19;7.30;;;6.60;;
966;SDS011;56108;48.730;9.304;2023-08-21T13:57:30;7.27;;;6.57;;
966;SDS011;56108;48.730;9.304;2023-08-21T13:59:40;8.03;;;6.80;;
966;SDS011;56108;48.730;9.304;2023-08-21T14:01:48;6.97;;;6.27;;
966;SDS011;56108;48.730;9.304;2023-08-21T14:03:56;8.83;;;6.50;;
966;SDS011;56108;48.730;9.304;2023-08-21T14:06:10;8.40;;;6.27;;
966;SDS011;56108;48.730;9.304;2023-08-21T14:08:18;7.73;;;7.07;;
966;SDS011;56108;48.730;9.304;2023-08-21T14:10:28;11.90;;;7.17;;
966;SDS011;56108;48.730;9.304;2023-08-21T14:12:39;16.10;;;7.50;;
966;SDS011;56108;48.730;9.304;2023-08-21T14:14:50;6.57;;;6.00;;
966;SDS011;56108;48.730;9.304;2023-08-21T14:17:02;6.47;;;5.87;;
966;SDS011;56108;48.730;9.304;2023-08-21T14:19:10;7.90;;;7.10;;
966;SDS011;56108;48.730;9.304;2023-08-21T14:21:20;7.07;;;6.47;;
966;SDS011;56108;48.730;9.304;2023-08-21T14:23:28;6.50;;;5.90;;
966;SDS011;56108;48.730;9.304;2023-08-21T14:25:38;7.33;;;6.60;;
966;SDS011;56108;48.730;9.304;2023-08-21T14:27:48;6.83;;;6.23;;
966;SDS011;56108;48.730;9.304;2023-08-21T14:29:56;9.53;;;6.30;;
966;SDS011;56108;48.730;9.304;2023-08-21T14:32:05;6.77;;;6.10;;
966;SDS011;56108;48.730;9.304;2023-08-21T14:34:15;7.30;;;6.60;;
966;SDS011;56108;48.730;9.304;2023-08-21T14:36:26;6.73;;;6.13;;
966;SDS011;56108;48.730;9.304;2023-08-21T14:38:34;6.93;;;6.30;;
966;SDS011;56108;48.730;9.304;2023-08-21T14:40:45;8.63;;;7.10;;
966;SDS011;56108;48.730;9.304;2023-08-21T14:42:56;6.33;;;5.50;;
966;SDS011;56108;48.730;9.304;2023-08-21T14:45:05;8.20;;;6.57;;
966;SDS011;56108;48.730;9.304;2023-08-21T14:47:14;6.70;;;6.00;;
966;SDS011;56108;48.730;9.304;2023-08-21T14:49:23;7.03;;;6.00;;
966;SDS011;56108;48.730;9.304;2023-08-21T14:51:32;8.07;;;6.63;;
966;SDS011;56108;48.730;9.304;2023-08-21T14:53:40;6.63;;;6.03;;
966;SDS011;56108;48.730;9.304;2023-08-21T14:55:48;7.67;;;5.90;;
966;SDS011;56108;48.730;9.304;2023-08-21T14:58:00;10.07;;;7.50;;
966;SDS011;56108;48.730;9.304;2023-08-21T15:00:12;7.30;;;6.10;;
966;SDS011;56108;48.730;9.304;2023-08-21T15:02:21;7.40;;;6.70;;
966;SDS011;56108;48.730;9.304;2023-08-21T15:04:30;9.37;;;6.60;;
966;SDS011;56108;48.730;9.304;2023-08-21T15:06:38;6.97;;;6.27;;
966;SDS011;56108;48.730;9.304;2023-08-21T15:08:46;9.83;;;6.53;;
966;SDS011;56108;48.730;9.304;2023-08-21T15:10:55;6.47;;;5.87;;
966;SDS011;56108;48.730;9.304;2023-08-21T15:13:06;10.63;;;6.50;;
966;SDS011;56108;48.730;9.304;2023-08-21T15:15:14;6.70;;;5.97;;
966;SDS011;56108;48.730;9.304;2023-08-21T15:17:28;7.80;;;5.63;;
966;SDS011;56108;48.730;9.304;2023-08-21T15:19:39;5.87;;;5.30;;
966;SDS011;56108;48.730;9.304;2023-08-21T15:21:47;8.10;;;5.80;;
966;SDS011;56108;48.730;9.304;2023-08-21T15:23:56;6.50;;;5.90;;
966;SDS011;56108;48.730;9.304;2023-08-21T15:26:08;6.87;;;6.10;;
966;SDS011;56108;48.730;9.304;2023-08-21T15:28:19;6.47;;;5.97;;
966;SDS011;56108;48.730;9.304;2023-08-21T15:30:28;7.37;;;6.67;;
966;SDS011;56108;48.730;9.304;2023-08-21T15:32:36;6.80;;;6.20;;
966;SDS011;56108;48.730;9.304;2023-08-21T15:34:45;7.23;;;5.63;;